sensor_id;sensor_type;location;lat;lon;timestamp;temperature;humidity
16154;DHT22;8182;55.648;13.208;2023-05-21T00:01:33;11.70;99.90
16154;DHT22;8182;55.648;13.208;2023-05-21T00:04:00;11.70;99.90
16154;DHT22;8182;55.648;13.208;2023-05-21T00:06:27;11.70;99.90
16154;DHT22;8182;55.648;13.208;2023-05-21T00:08:54;11.70;99.90
16154;DHT22;8182;55.648;13.208;2023-05-21T00:11:21;11.70;99.90
16154;DHT22;8182;55.648;13.208;2023-05-21T00:13:56;11.70;99.90
16154;DHT22;8182;55.648;13.208;2023-05-21T00:16:23;11.70;99.90
16154;DHT22;8182;55.648;13.208;2023-05-21T00:18:50;11.70;99.90
16154;DHT22;8182;55.648;13.208;2023-05-21T00:21:20;11.70;99.90
16154;DHT22;8182;55.648;13.208;2023-05-21T00:23:50;11.60;99.90
16154;DHT22;8182;55.648;13.208;2023-05-21T00:26:18;11.70;99.90
16154;DHT22;8182;55.648;13.208;2023-05-21T00:28:46;11.70;99.90
16154;DHT22;8182;55.648;13.208;2023-05-21T00:31:16;11.70;99.90
16154;DHT22;8182;55.648;13.208;2023-05-21T00:33:47;11.70;99.90
16154;DHT22;8182;55.648;13.208;2023-05-21T00:36:16;11.70;99.90
16154;DHT22;8182;55.648;13.208;2023-05-21T00:38:43;11.60;99.90
16154;DHT22;8182;55.648;13.208;2023-05-21T00:41:10;11.70;99.90
16154;DHT22;8182;55.648;13.208;2023-05-21T00:43:38;11.70;99.90
16154;DHT22;8182;55.648;13.208;2023-05-21T00:46:06;11.70;99.90
16154;DHT22;8182;55.648;13.208;2023-05-21T00:48:35;11.70;99.90
16154;DHT22;8182;55.648;13.208;2023-05-21T00:51:02;11.60;99.90
16154;DHT22;8182;55.648;13.208;2023-05-21T00:53:31;11.70;99.90
16154;DHT22;8182;55.648;13.208;2023-05-21T00:55:59;11.70;99.90
16154;DHT22;8182;55.648;13.208;2023-05-21T00:58:26;11.70;99.90
16154;DHT22;8182;55.648;13.208;2023-05-21T01:00:54;11.70;99.90
16154;DHT22;8182;55.648;13.208;2023-05-21T01:03:22;11.70;99.90
16154;DHT22;8182;55.648;13.208;2023-05-21T01:05:54;11.70;99.90
16154;DHT22;8182;55.648;13.208;2023-05-21T01:08:24;11.70;99.90
16154;DHT22;8182;55.648;13.208;2023-05-21T01:10:52;11.70;99.90
16154;DHT22;8182;55.648;13.208;2023-05-21T01:13:22;11.70;99.90
16154;DHT22;8182;55.648;13.208;2023-05-21T01:15:50;11.70;99.90
16154;DHT22;8182;55.648;13.208;2023-05-21T01:18:18;11.70;99.90
16154;DHT22;8182;55.648;13.208;2023-05-21T01:20:45;11.60;99.90
16154;DHT22;8182;55.648;13.208;2023-05-21T01:23:15;11.60;99.90
16154;DHT22;8182;55.648;13.208;2023-05-21T01:25:42;11.70;99.90
16154;DHT22;8182;55.648;13.208;2023-05-21T01:28:10;11.60;99.90
16154;DHT22;8182;55.648;13.208;2023-05-21T01:30:37;11.60;99.90
16154;DHT22;8182;55.648;13.208;2023-05-21T01:33:11;11.60;99.90
16154;DHT22;8182;55.648;13.208;2023-05-21T01:35:42;11.60;99.90
16154;DHT22;8182;55.648;13.208;2023-05-21T01:38:15;11.60;99.90
16154;DHT22;8182;55.648;13.208;2023-05-21T01:40:47;11.50;99.90
16154;DHT22;8182;55.648;13.208;2023-05-21T01:43:19;11.50;99.90
16154;DHT22;8182;55.648;13.208;2023-05-21T01:45:47;11.50;99.90
16154;DHT22;8182;55.648;13.208;2023-05-21T01:48:18;11.50;99.90
16154;DHT22;8182;55.648;13.208;2023-05-21T01:50:45;11.50;99.90
16154;DHT22;8182;55.648;13.208;2023-05-21T01:53:15;11.40;99.90
16154;DHT22;8182;55.648;13.208;2023-05-21T01:55:42;11.50;99.90
16154;DHT22;8182;55.648;13.208;2023-05-21T01:58:10;11.40;99.90
16154;DHT22;8182;55.648;13.208;2023-05-21T02:00:37;11.50;99.90
16154;DHT22;8182;55.648;13.208;2023-05-21T02:03:05;11.50;99.90
16154;DHT22;8182;55.648;13.208;2023-05-21T02:05:36;11.50;99.90
16154;DHT22;8182;55.648;13.208;2023-05-21T02:08:03;11.50;99.90
16154;DHT22;8182;55.648;13.208;2023-05-21T02:10:34;11.50;99.90
16154;DHT22;8182;55.648;13.208;2023-05-21T02:13:01;11.40;99.90
16154;DHT22;8182;55.648;13.208;2023-05-21T02:15:28;11.40;99.90
16154;DHT22;8182;55.648;13.208;2023-05-21T02:17:55;11.40;99.90
16154;DHT22;8182;55.648;13.208;2023-05-21T02:20:22;11.40;99.90
16154;DHT22;8182;55.648;13.208;2023-05-21T02:22:50;11.40;99.90
16154;DHT22;8182;55.648;13.208;2023-05-21T02:25:18;11.40;99.90
16154;DHT22;8182;55.648;13.208;2023-05-21T02:27:46;11.40;99.90
16154;DHT22;8182;55.648;13.208;2023-05-21T02:30:19;11.40;99.90
16154;DHT22;8182;55.648;13.208;2023-05-21T02:32:46;11.40;99.90
16154;DHT22;8182;55.648;13.208;2023-05-21T02:35:14;11.40;99.90
16154;DHT22;8182;55.648;13.208;2023-05-21T02:37:42;11.30;99.90
16154;DHT22;8182;55.648;13.208;2023-05-21T02:40:13;11.40;99.90
16154;DHT22;8182;55.648;13.208;2023-05-21T02:42:40;11.30;99.90
16154;DHT22;8182;55.648;13.208;2023-05-21T02:45:10;11.40;99.90
16154;DHT22;8182;55.648;13.208;2023-05-21T02:47:37;11.30;99.90
16154;DHT22;8182;55.648;13.208;2023-05-21T02:50:06;11.30;99.90
16154;DHT22;8182;55.648;13.208;2023-05-21T02:52:33;11.30;99.90
16154;DHT22;8182;55.648;13.208;2023-05-21T02:55:00;11.30;99.90
16154;DHT22;8182;55.648;13.208;2023-05-21T02:57:27;11.30;99.90
16154;DHT22;8182;55.648;13.208;2023-05-21T02:59:54;11.30;99.90
16154;DHT22;8182;55.648;13.208;2023-05-21T03:02:22;11.30;99.90
16154;DHT22;8182;55.648;13.208;2023-05-21T03:04:50;11.30;99.90
16154;DHT22;8182;55.648;13.208;2023-05-21T03:07:18;11.40;99.90
16154;DHT22;8182;55.648;13.208;2023-05-21T03:09:45;11.30;99.90
16154;DHT22;8182;55.648;13.208;2023-05-21T03:12:13;11.40;99.90
16154;DHT22;8182;55.648;13.208;2023-05-21T03:14:41;11.40;99.90
16154;DHT22;8182;55.648;13.208;2023-05-21T03:17:08;11.40;99.90
16154;DHT22;8182;55.648;13.208;2023-05-21T03:19:40;11.40;99.90
16154;DHT22;8182;55.648;13.208;2023-05-21T03:22:07;11.40;99.90
16154;DHT22;8182;55.648;13.208;2023-05-21T03:24:37;11.40;99.90
16154;DHT22;8182;55.648;13.208;2023-05-21T03:27:04;11.40;99.90
16154;DHT22;8182;55.648;13.208;2023-05-21T03:29:31;11.50;99.90
16154;DHT22;8182;55.648;13.208;2023-05-21T03:32:00;11.50;99.90
16154;DHT22;8182;55.648;13.208;2023-05-21T03:34:27;11.50;99.90
16154;DHT22;8182;55.648;13.208;2023-05-21T03:36:56;11.60;99.90
16154;DHT22;8182;55.648;13.208;2023-05-21T03:39:23;11.50;99.90
16154;DHT22;8182;55.648;13.208;2023-05-21T03:41:50;11.60;99.90
16154;DHT22;8182;55.648;13.208;2023-05-21T03:44:18;11.70;99.90
16154;DHT22;8182;55.648;13.208;2023-05-21T03:46:46;11.70;99.90
16154;DHT22;8182;55.648;13.208;2023-05-21T03:49:13;11.70;99.90
16154;DHT22;8182;55.648;13.208;2023-05-21T03:51:39;11.80;99.90
16154;DHT22;8182;55.648;13.208;2023-05-21T03:54:08;11.80;99.90
16154;DHT22;8182;55.648;13.208;2023-05-21T03:56:35;11.80;99.90
16154;DHT22;8182;55.648;13.208;2023-05-21T03:59:02;11.90;99.90
16154;DHT22;8182;55.648;13.208;2023-05-21T04:01:29;12.00;99.90
16154;DHT22;8182;55.648;13.208;2023-05-21T04:03:57;12.00;99.90
16154;DHT22;8182;55.648;13.208;2023-05-21T04:06:24;12.10;99.90
16154;DHT22;8182;55.648;13.208;2023-05-21T04:08:51;12.20;99.90
16154;DHT22;8182;55.648;13.208;2023-05-21T04:11:20;12.20;99.90
16154;DHT22;8182;55.648;13.208;2023-05-21T04:13:47;12.30;99.90
16154;DHT22;8182;55.648;13.208;2023-05-21T04:16:14;12.30;99.90
16154;DHT22;8182;55.648;13.208;2023-05-21T04:18:43;12.40;99.90
16154;DHT22;8182;55.648;13.208;2023-05-21T04:21:11;12.40;99.90
16154;DHT22;8182;55.648;13.208;2023-05-21T04:23:38;12.40;99.90
16154;DHT22;8182;55.648;13.208;2023-05-21T04:26:05;12.50;99.90
16154;DHT22;8182;55.648;13.208;2023-05-21T04:28:33;12.50;99.90
16154;DHT22;8182;55.648;13.208;2023-05-21T04:31:01;12.60;99.90
16154;DHT22;8182;55.648;13.208;2023-05-21T04:33:27;12.60;99.90
16154;DHT22;8182;55.648;13.208;2023-05-21T04:35:54;12.70;99.90
16154;DHT22;8182;55.648;13.208;2023-05-21T04:38:22;12.70;99.90
16154;DHT22;8182;55.648;13.208;2023-05-21T04:40:51;12.80;99.90
16154;DHT22;8182;55.648;13.208;2023-05-21T04:43:20;12.90;99.90
16154;DHT22;8182;55.648;13.208;2023-05-21T04:45:52;12.90;99.90
16154;DHT22;8182;55.648;13.208;2023-05-21T04:48:20;12.90;99.90
16154;DHT22;8182;55.648;13.208;2023-05-21T04:50:47;12.90;99.90
16154;DHT22;8182;55.648;13.208;2023-05-21T04:53:14;13.00;99.90
16154;DHT22;8182;55.648;13.208;2023-05-21T04:55:41;13.10;99.90
16154;DHT22;8182;55.648;13.208;2023-05-21T04:58:08;13.20;99.90
16154;DHT22;8182;55.648;13.208;2023-05-21T05:00:36;13.20;99.90
16154;DHT22;8182;55.648;13.208;2023-05-21T05:03:06;13.30;99.90
16154;DHT22;8182;55.648;13.208;2023-05-21T05:05:34;13.30;99.90
16154;DHT22;8182;55.648;13.208;2023-05-21T05:08:01;13.40;99.90
16154;DHT22;8182;55.648;13.208;2023-05-21T05:10:28;13.40;99.90
16154;DHT22;8182;55.648;13.208;2023-05-21T05:12:56;13.50;99.90
16154;DHT22;8182;55.648;13.208;2023-05-21T05:15:23;13.60;99.90
16154;DHT22;8182;55.648;13.208;2023-05-21T05:17:50;13.70;99.90
16154;DHT22;8182;55.648;13.208;2023-05-21T05:20:20;13.90;99.90
16154;DHT22;8182;55.648;13.208;2023-05-21T05:22:47;14.10;99.90
16154;DHT22;8182;55.648;13.208;2023-05-21T05:25:14;14.20;99.90
16154;DHT22;8182;55.648;13.208;2023-05-21T05:27:41;14.40;99.90
16154;DHT22;8182;55.648;13.208;2023-05-21T05:30:09;14.50;99.90
16154;DHT22;8182;55.648;13.208;2023-05-21T05:32:36;14.60;99.90
16154;DHT22;8182;55.648;13.208;2023-05-21T05:35:03;14.70;99.90
16154;DHT22;8182;55.648;13.208;2023-05-21T05:37:32;14.70;99.90
16154;DHT22;8182;55.648;13.208;2023-05-21T05:39:59;14.80;99.90
16154;DHT22;8182;55.648;13.208;2023-05-21T05:42:26;14.90;99.90
16154;DHT22;8182;55.648;13.208;2023-05-21T05:44:53;15.00;99.90
16154;DHT22;8182;55.648;13.208;2023-05-21T05:47:20;15.20;99.90
16154;DHT22;8182;55.648;13.208;2023-05-21T05:49:47;15.30;99.90
16154;DHT22;8182;55.648;13.208;2023-05-21T05:52:14;15.40;99.90
16154;DHT22;8182;55.648;13.208;2023-05-21T05:54:42;15.40;99.90
16154;DHT22;8182;55.648;13.208;2023-05-21T05:57:09;15.60;99.90
16154;DHT22;8182;55.648;13.208;2023-05-21T05:59:36;15.70;99.90
16154;DHT22;8182;55.648;13.208;2023-05-21T06:02:03;15.80;99.90
16154;DHT22;8182;55.648;13.208;2023-05-21T06:04:30;16.00;99.90
16154;DHT22;8182;55.648;13.208;2023-05-21T06:06:58;16.10;99.90
16154;DHT22;8182;55.648;13.208;2023-05-21T06:09:25;16.40;99.90
16154;DHT22;8182;55.648;13.208;2023-05-21T06:11:55;16.40;99.90
16154;DHT22;8182;55.648;13.208;2023-05-21T06:14:22;16.60;99.90
16154;DHT22;8182;55.648;13.208;2023-05-21T06:16:49;16.60;99.90
16154;DHT22;8182;55.648;13.208;2023-05-21T06:19:16;16.70;99.90
16154;DHT22;8182;55.648;13.208;2023-05-21T06:21:43;16.60;99.90
16154;DHT22;8182;55.648;13.208;2023-05-21T06:24:10;16.70;99.90
16154;DHT22;8182;55.648;13.208;2023-05-21T06:26:37;16.90;99.90
16154;DHT22;8182;55.648;13.208;2023-05-21T06:29:05;16.90;99.90
16154;DHT22;8182;55.648;13.208;2023-05-21T06:31:32;17.00;99.90
16154;DHT22;8182;55.648;13.208;2023-05-21T06:33:59;16.90;99.90
16154;DHT22;8182;55.648;13.208;2023-05-21T06:36:26;17.10;99.90
16154;DHT22;8182;55.648;13.208;2023-05-21T06:38:54;17.20;99.90
16154;DHT22;8182;55.648;13.208;2023-05-21T06:41:22;17.20;99.90
16154;DHT22;8182;55.648;13.208;2023-05-21T06:43:49;17.20;99.90
16154;DHT22;8182;55.648;13.208;2023-05-21T06:46:17;17.40;99.90
16154;DHT22;8182;55.648;13.208;2023-05-21T06:48:45;17.40;99.90
16154;DHT22;8182;55.648;13.208;2023-05-21T06:51:12;17.60;99.90
16154;DHT22;8182;55.648;13.208;2023-05-21T06:53:39;17.50;99.90
16154;DHT22;8182;55.648;13.208;2023-05-21T06:56:06;17.60;99.90
16154;DHT22;8182;55.648;13.208;2023-05-21T06:58:33;17.60;99.90
16154;DHT22;8182;55.648;13.208;2023-05-21T07:01:00;18.00;99.90
16154;DHT22;8182;55.648;13.208;2023-05-21T07:03:28;18.10;99.90
16154;DHT22;8182;55.648;13.208;2023-05-21T07:05:56;17.90;99.90
16154;DHT22;8182;55.648;13.208;2023-05-21T07:08:23;17.70;99.90
16154;DHT22;8182;55.648;13.208;2023-05-21T07:10:50;17.70;99.90
16154;DHT22;8182;55.648;13.208;2023-05-21T07:13:17;17.70;99.90
16154;DHT22;8182;55.648;13.208;2023-05-21T07:15:44;17.80;99.90
16154;DHT22;8182;55.648;13.208;2023-05-21T07:18:11;18.00;99.90
16154;DHT22;8182;55.648;13.208;2023-05-21T07:20:40;18.20;99.90
16154;DHT22;8182;55.648;13.208;2023-05-21T07:23:08;18.40;99.90
16154;DHT22;8182;55.648;13.208;2023-05-21T07:25:35;18.70;99.90
16154;DHT22;8182;55.648;13.208;2023-05-21T07:28:02;18.80;99.90
16154;DHT22;8182;55.648;13.208;2023-05-21T07:30:29;18.70;99.90
16154;DHT22;8182;55.648;13.208;2023-05-21T07:32:58;18.80;99.90
16154;DHT22;8182;55.648;13.208;2023-05-21T07:35:25;18.90;99.90
16154;DHT22;8182;55.648;13.208;2023-05-21T07:37:55;19.10;99.90
16154;DHT22;8182;55.648;13.208;2023-05-21T07:40:22;19.10;99.90
16154;DHT22;8182;55.648;13.208;2023-05-21T07:42:49;19.30;99.90
16154;DHT22;8182;55.648;13.208;2023-05-21T07:45:16;19.70;99.90
16154;DHT22;8182;55.648;13.208;2023-05-21T07:47:44;19.60;99.90
16154;DHT22;8182;55.648;13.208;2023-05-21T07:50:12;19.60;99.90
16154;DHT22;8182;55.648;13.208;2023-05-21T07:52:39;19.90;99.90
16154;DHT22;8182;55.648;13.208;2023-05-21T07:55:08;19.90;99.90
16154;DHT22;8182;55.648;13.208;2023-05-21T07:57:35;19.80;99.90
16154;DHT22;8182;55.648;13.208;2023-05-21T08:00:03;20.00;99.90
16154;DHT22;8182;55.648;13.208;2023-05-21T08:02:31;20.40;99.90
16154;DHT22;8182;55.648;13.208;2023-05-21T08:04:58;20.50;99.90
16154;DHT22;8182;55.648;13.208;2023-05-21T08:07:26;20.70;99.90
16154;DHT22;8182;55.648;13.208;2023-05-21T08:09:53;21.00;99.90
16154;DHT22;8182;55.648;13.208;2023-05-21T08:12:21;20.80;99.90
16154;DHT22;8182;55.648;13.208;2023-05-21T08:14:48;20.50;99.90
16154;DHT22;8182;55.648;13.208;2023-05-21T08:17:16;20.40;99.90
16154;DHT22;8182;55.648;13.208;2023-05-21T08:19:42;20.10;99.90
16154;DHT22;8182;55.648;13.208;2023-05-21T08:22:09;20.20;99.90
16154;DHT22;8182;55.648;13.208;2023-05-21T08:24:36;20.20;99.90
16154;DHT22;8182;55.648;13.208;2023-05-21T08:27:04;20.10;99.90
16154;DHT22;8182;55.648;13.208;2023-05-21T08:29:33;20.10;99.90
16154;DHT22;8182;55.648;13.208;2023-05-21T08:32:01;20.30;99.90
16154;DHT22;8182;55.648;13.208;2023-05-21T08:34:27;20.30;99.90
16154;DHT22;8182;55.648;13.208;2023-05-21T08:36:54;20.50;99.90
16154;DHT22;8182;55.648;13.208;2023-05-21T08:39:21;20.80;99.90
16154;DHT22;8182;55.648;13.208;2023-05-21T08:41:51;21.10;99.90
16154;DHT22;8182;55.648;13.208;2023-05-21T08:44:24;21.00;99.90
16154;DHT22;8182;55.648;13.208;2023-05-21T08:46:54;21.10;99.90
16154;DHT22;8182;55.648;13.208;2023-05-21T08:49:26;21.20;99.90
16154;DHT22;8182;55.648;13.208;2023-05-21T08:51:56;21.20;99.90
16154;DHT22;8182;55.648;13.208;2023-05-21T08:54:24;21.20;99.90
16154;DHT22;8182;55.648;13.208;2023-05-21T08:56:52;20.90;99.90
16154;DHT22;8182;55.648;13.208;2023-05-21T08:59:20;21.00;99.90
16154;DHT22;8182;55.648;13.208;2023-05-21T09:01:48;21.30;99.90
16154;DHT22;8182;55.648;13.208;2023-05-21T09:04:18;21.30;99.90
16154;DHT22;8182;55.648;13.208;2023-05-21T09:06:46;21.30;99.90
16154;DHT22;8182;55.648;13.208;2023-05-21T09:09:18;21.40;99.90
16154;DHT22;8182;55.648;13.208;2023-05-21T09:11:48;21.50;99.90
16154;DHT22;8182;55.648;13.208;2023-05-21T09:14:16;21.00;99.90
16154;DHT22;8182;55.648;13.208;2023-05-21T09:16:45;20.80;99.90
16154;DHT22;8182;55.648;13.208;2023-05-21T09:19:13;20.90;99.90
16154;DHT22;8182;55.648;13.208;2023-05-21T09:21:41;20.70;99.90
16154;DHT22;8182;55.648;13.208;2023-05-21T09:24:08;20.70;99.90
16154;DHT22;8182;55.648;13.208;2023-05-21T09:26:36;20.60;99.90
16154;DHT22;8182;55.648;13.208;2023-05-21T09:29:06;20.60;99.90
16154;DHT22;8182;55.648;13.208;2023-05-21T09:31:33;20.50;99.90
16154;DHT22;8182;55.648;13.208;2023-05-21T09:34:01;20.60;99.90
16154;DHT22;8182;55.648;13.208;2023-05-21T09:36:28;20.60;99.90
16154;DHT22;8182;55.648;13.208;2023-05-21T09:38:59;20.70;99.90
16154;DHT22;8182;55.648;13.208;2023-05-21T09:41:33;21.10;99.90
16154;DHT22;8182;55.648;13.208;2023-05-21T09:44:01;21.50;99.90
16154;DHT22;8182;55.648;13.208;2023-05-21T09:46:37;21.90;99.90
16154;DHT22;8182;55.648;13.208;2023-05-21T09:49:04;22.40;99.90
16154;DHT22;8182;55.648;13.208;2023-05-21T09:51:31;22.80;99.90
16154;DHT22;8182;55.648;13.208;2023-05-21T09:53:59;23.30;99.90
16154;DHT22;8182;55.648;13.208;2023-05-21T09:56:27;23.70;99.90
16154;DHT22;8182;55.648;13.208;2023-05-21T09:58:57;23.90;99.90
16154;DHT22;8182;55.648;13.208;2023-05-21T10:01:26;24.00;99.90
16154;DHT22;8182;55.648;13.208;2023-05-21T10:03:54;24.40;99.90
16154;DHT22;8182;55.648;13.208;2023-05-21T10:06:25;24.40;99.90
16154;DHT22;8182;55.648;13.208;2023-05-21T10:08:54;24.50;99.90
16154;DHT22;8182;55.648;13.208;2023-05-21T10:11:26;25.30;99.90
16154;DHT22;8182;55.648;13.208;2023-05-21T10:13:56;25.80;99.90
16154;DHT22;8182;55.648;13.208;2023-05-21T10:16:23;26.20;99.90
16154;DHT22;8182;55.648;13.208;2023-05-21T10:18:52;26.10;99.90
16154;DHT22;8182;55.648;13.208;2023-05-21T10:21:21;26.60;99.90
16154;DHT22;8182;55.648;13.208;2023-05-21T10:23:49;25.90;99.90
16154;DHT22;8182;55.648;13.208;2023-05-21T10:26:17;25.70;99.90
16154;DHT22;8182;55.648;13.208;2023-05-21T10:28:48;25.10;99.90
16154;DHT22;8182;55.648;13.208;2023-05-21T10:31:17;25.60;99.90
16154;DHT22;8182;55.648;13.208;2023-05-21T10:33:44;25.40;99.90
16154;DHT22;8182;55.648;13.208;2023-05-21T10:36:11;25.30;99.90
16154;DHT22;8182;55.648;13.208;2023-05-21T10:38:39;24.50;99.90
16154;DHT22;8182;55.648;13.208;2023-05-21T10:41:09;24.00;99.90
16154;DHT22;8182;55.648;13.208;2023-05-21T10:43:43;24.10;99.90
16154;DHT22;8182;55.648;13.208;2023-05-21T10:46:31;24.00;99.90
16154;DHT22;8182;55.648;13.208;2023-05-21T10:52:16;25.20;99.90
16154;DHT22;8182;55.648;13.208;2023-05-21T10:55:03;24.90;99.90
16154;DHT22;8182;55.648;13.208;2023-05-21T11:00:40;24.90;99.90
16154;DHT22;8182;55.648;13.208;2023-05-21T11:03:09;24.80;99.90
16154;DHT22;8182;55.648;13.208;2023-05-21T11:05:38;24.70;99.90
16154;DHT22;8182;55.648;13.208;2023-05-21T11:08:19;24.40;99.90
16154;DHT22;8182;55.648;13.208;2023-05-21T11:10:51;24.30;99.90
16154;DHT22;8182;55.648;13.208;2023-05-21T11:13:18;24.30;99.90
16154;DHT22;8182;55.648;13.208;2023-05-21T11:16:12;24.10;99.90
16154;DHT22;8182;55.648;13.208;2023-05-21T11:18:59;24.20;99.90
16154;DHT22;8182;55.648;13.208;2023-05-21T11:21:31;24.10;99.90
16154;DHT22;8182;55.648;13.208;2023-05-21T11:24:04;24.00;99.90
16154;DHT22;8182;55.648;13.208;2023-05-21T11:27:00;23.90;99.90
16154;DHT22;8182;55.648;13.208;2023-05-21T11:29:42;24.00;99.90
16154;DHT22;8182;55.648;13.208;2023-05-21T11:32:10;24.00;99.90
16154;DHT22;8182;55.648;13.208;2023-05-21T11:34:43;23.70;99.90
16154;DHT22;8182;55.648;13.208;2023-05-21T11:37:31;23.50;99.90
16154;DHT22;8182;55.648;13.208;2023-05-21T11:40:19;23.70;99.90
16154;DHT22;8182;55.648;13.208;2023-05-21T11:42:49;23.90;99.90
16154;DHT22;8182;55.648;13.208;2023-05-21T11:45:18;24.10;99.90
16154;DHT22;8182;55.648;13.208;2023-05-21T11:47:46;24.20;99.90
16154;DHT22;8182;55.648;13.208;2023-05-21T11:50:15;24.30;99.90
16154;DHT22;8182;55.648;13.208;2023-05-21T11:52:43;23.90;99.90
16154;DHT22;8182;55.648;13.208;2023-05-21T11:55:10;24.10;99.90
16154;DHT22;8182;55.648;13.208;2023-05-21T11:57:41;24.00;99.90
16154;DHT22;8182;55.648;13.208;2023-05-21T12:00:14;24.10;99.90
16154;DHT22;8182;55.648;13.208;2023-05-21T12:02:46;24.50;99.90
16154;DHT22;8182;55.648;13.208;2023-05-21T12:05:14;24.60;99.90
16154;DHT22;8182;55.648;13.208;2023-05-21T12:07:41;24.30;99.90
16154;DHT22;8182;55.648;13.208;2023-05-21T12:10:13;24.40;99.90
16154;DHT22;8182;55.648;13.208;2023-05-21T12:12:40;24.50;99.90
16154;DHT22;8182;55.648;13.208;2023-05-21T12:15:08;24.40;99.90
16154;DHT22;8182;55.648;13.208;2023-05-21T12:17:37;24.60;99.90
16154;DHT22;8182;55.648;13.208;2023-05-21T12:20:04;24.60;99.90
16154;DHT22;8182;55.648;13.208;2023-05-21T12:22:39;24.30;99.90
16154;DHT22;8182;55.648;13.208;2023-05-21T12:25:08;24.30;99.90
16154;DHT22;8182;55.648;13.208;2023-05-21T12:27:36;24.50;99.90
16154;DHT22;8182;55.648;13.208;2023-05-21T12:30:04;24.40;99.90
16154;DHT22;8182;55.648;13.208;2023-05-21T12:32:32;24.40;99.90
16154;DHT22;8182;55.648;13.208;2023-05-21T12:34:59;24.30;99.90
16154;DHT22;8182;55.648;13.208;2023-05-21T12:37:29;24.40;99.90
16154;DHT22;8182;55.648;13.208;2023-05-21T12:39:59;24.40;99.90
16154;DHT22;8182;55.648;13.208;2023-05-21T12:42:27;24.40;99.90
16154;DHT22;8182;55.648;13.208;2023-05-21T12:44:56;24.50;99.90
16154;DHT22;8182;55.648;13.208;2023-05-21T12:47:23;24.30;99.90
16154;DHT22;8182;55.648;13.208;2023-05-21T12:49:53;24.10;99.90
16154;DHT22;8182;55.648;13.208;2023-05-21T12:52:22;24.30;99.90
16154;DHT22;8182;55.648;13.208;2023-05-21T12:54:51;24.20;99.90
16154;DHT22;8182;55.648;13.208;2023-05-21T12:57:23;24.30;99.90
16154;DHT22;8182;55.648;13.208;2023-05-21T12:59:51;24.10;99.90
16154;DHT22;8182;55.648;13.208;2023-05-21T13:02:19;24.00;99.90
16154;DHT22;8182;55.648;13.208;2023-05-21T13:04:47;24.10;99.90
16154;DHT22;8182;55.648;13.208;2023-05-21T13:07:14;24.10;99.90
16154;DHT22;8182;55.648;13.208;2023-05-21T13:09:42;24.00;99.90
16154;DHT22;8182;55.648;13.208;2023-05-21T13:12:10;24.10;99.90
16154;DHT22;8182;55.648;13.208;2023-05-21T13:14:39;23.90;99.90
16154;DHT22;8182;55.648;13.208;2023-05-21T13:17:06;23.80;99.90
16154;DHT22;8182;55.648;13.208;2023-05-21T13:19:33;23.90;99.90
16154;DHT22;8182;55.648;13.208;2023-05-21T13:22:00;23.90;99.90
16154;DHT22;8182;55.648;13.208;2023-05-21T13:24:26;23.90;99.90
16154;DHT22;8182;55.648;13.208;2023-05-21T13:26:54;24.00;99.90
16154;DHT22;8182;55.648;13.208;2023-05-21T13:29:21;24.00;99.90
16154;DHT22;8182;55.648;13.208;2023-05-21T13:31:51;23.90;99.90
16154;DHT22;8182;55.648;13.208;2023-05-21T13:34:18;24.00;99.90
16154;DHT22;8182;55.648;13.208;2023-05-21T13:36:45;24.10;99.90
16154;DHT22;8182;55.648;13.208;2023-05-21T13:39:12;23.80;99.90
16154;DHT22;8182;55.648;13.208;2023-05-21T13:41:39;23.90;99.90
16154;DHT22;8182;55.648;13.208;2023-05-21T13:44:07;23.90;99.90
16154;DHT22;8182;55.648;13.208;2023-05-21T13:46:34;23.60;99.90
16154;DHT22;8182;55.648;13.208;2023-05-21T13:49:05;23.70;99.90
16154;DHT22;8182;55.648;13.208;2023-05-21T13:51:32;23.80;99.90
16154;DHT22;8182;55.648;13.208;2023-05-21T13:53:59;23.80;99.90
16154;DHT22;8182;55.648;13.208;2023-05-21T13:56:26;23.80;99.90
16154;DHT22;8182;55.648;13.208;2023-05-21T13:58:54;23.70;99.90
16154;DHT22;8182;55.648;13.208;2023-05-21T14:01:21;23.90;99.90
16154;DHT22;8182;55.648;13.208;2023-05-21T14:03:48;23.90;99.90
16154;DHT22;8182;55.648;13.208;2023-05-21T14:06:16;23.90;99.90
16154;DHT22;8182;55.648;13.208;2023-05-21T14:08:43;23.80;99.90
16154;DHT22;8182;55.648;13.208;2023-05-21T14:11:10;23.80;99.90
16154;DHT22;8182;55.648;13.208;2023-05-21T14:13:38;23.80;99.90
16154;DHT22;8182;55.648;13.208;2023-05-21T14:16:06;23.90;99.90
16154;DHT22;8182;55.648;13.208;2023-05-21T14:18:33;23.80;99.90
16154;DHT22;8182;55.648;13.208;2023-05-21T14:21:00;23.70;99.90
16154;DHT22;8182;55.648;13.208;2023-05-21T14:23:28;23.60;99.90
16154;DHT22;8182;55.648;13.208;2023-05-21T14:25:55;23.70;99.90
16154;DHT22;8182;55.648;13.208;2023-05-21T14:28:22;23.80;99.90
16154;DHT22;8182;55.648;13.208;2023-05-21T14:30:49;23.80;99.90
16154;DHT22;8182;55.648;13.208;2023-05-21T14:33:16;23.80;99.90
16154;DHT22;8182;55.648;13.208;2023-05-21T14:35:44;23.90;99.90
16154;DHT22;8182;55.648;13.208;2023-05-21T14:38:12;23.80;99.90
16154;DHT22;8182;55.648;13.208;2023-05-21T14:40:41;23.70;99.90
16154;DHT22;8182;55.648;13.208;2023-05-21T14:43:08;23.60;99.90
16154;DHT22;8182;55.648;13.208;2023-05-21T14:45:35;23.50;99.90
16154;DHT22;8182;55.648;13.208;2023-05-21T14:48:02;23.40;99.90
16154;DHT22;8182;55.648;13.208;2023-05-21T14:50:33;23.30;99.90
16154;DHT22;8182;55.648;13.208;2023-05-21T14:53:03;23.20;99.90
16154;DHT22;8182;55.648;13.208;2023-05-21T14:55:30;23.20;99.90
16154;DHT22;8182;55.648;13.208;2023-05-21T14:57:59;23.20;99.90
16154;DHT22;8182;55.648;13.208;2023-05-21T15:00:26;23.20;99.90
16154;DHT22;8182;55.648;13.208;2023-05-21T15:02:53;23.20;99.90
16154;DHT22;8182;55.648;13.208;2023-05-21T15:05:28;23.20;99.90
16154;DHT22;8182;55.648;13.208;2023-05-21T15:07:58;23.20;99.90
16154;DHT22;8182;55.648;13.208;2023-05-21T15:10:26;23.00;99.90
16154;DHT22;8182;55.648;13.208;2023-05-21T15:12:54;22.80;99.90
16154;DHT22;8182;55.648;13.208;2023-05-21T15:15:22;22.80;99.90
16154;DHT22;8182;55.648;13.208;2023-05-21T15:17:49;22.90;99.90
16154;DHT22;8182;55.648;13.208;2023-05-21T15:20:17;22.90;99.90
16154;DHT22;8182;55.648;13.208;2023-05-21T15:22:45;22.80;99.90
16154;DHT22;8182;55.648;13.208;2023-05-21T15:25:14;22.90;99.90
16154;DHT22;8182;55.648;13.208;2023-05-21T15:27:44;22.80;99.90
16154;DHT22;8182;55.648;13.208;2023-05-21T15:30:11;22.70;99.90
16154;DHT22;8182;55.648;13.208;2023-05-21T15:32:39;22.60;99.90
16154;DHT22;8182;55.648;13.208;2023-05-21T15:35:08;22.70;99.90
16154;DHT22;8182;55.648;13.208;2023-05-21T15:37:35;22.70;99.90
16154;DHT22;8182;55.648;13.208;2023-05-21T15:40:02;22.60;99.90
16154;DHT22;8182;55.648;13.208;2023-05-21T15:42:30;22.40;99.90
16154;DHT22;8182;55.648;13.208;2023-05-21T15:44:57;22.30;99.90